Skip Navigation LinksHome page > Weather > Current weather Skip Navigation Links

Current Weather

Indira Gandhi Intl Apt, New Delhi, India

For information only: do not use for flight planning or navigation.
Latest weather
Observation time Wednesday, October 27, 2021 1:00 PM IST
Local time Wednesday, October 27, 2021 1:22 PM IST
Flight conditions Instrument Meteorological Conditions
Winds
Wind direction West (280°)
Wind speed 9 mph
Visibility 1.6 mi.
Present weather haze
Sky condition
Ceiling unlimited
Temperature 81°F
Dewpoint 61°F
Altimeter 30.00 in.Hg
Derived measurements
Relative humidity 51%
Heat index 81°F
Density altitude 2307 ft.
Remarks
No significant changes expected in the next two hours.
METAR VIDP 270730Z 28008KT 2500 HZ NSC 27/16 Q1016 NOSIG

Settings

Location code

InnerDrive.Weather 4.0.6770.0 Release CLR 4.0.30319.42000
Copyright ©2018 Inner Drive Technology. All rights reserved. Portions Copyright ©1986-2018 David Braverman.

Find weather

Site navigation


Skip Navigation Links

Place info

Page info

PayPal - The safer, easier way to pay online!

Return home.

Copyright ©2021 Inner Drive Technology. Purveyors of fine, hand-crafted computer software. Page printed 2021-10-27T07:52:28 UTC.